Time;durP1;ratioP1;P1;durP2;ratioP2;P2;SDS_P1;SDS_P2;PMS_P1;PMS_P2;Temp;Humidity;BMP_temperature;BMP_pressure;BME280_temperature;BME280_humidity;BME280_pressure;Samples;Min_cycle;Max_cycle;Signal;HPM_P1;HPM_P2
2023/04/14 00:02:43;;;;;;;87.80;41.20;;;;;;;8.05;89.17;97815.38;222287;1299;22553;-75
2023/04/14 00:07:45;;;;;;;87.70;41.60;;;;;;;8.10;89.07;97808.95;222207;1296;22617;-75
2023/04/14 00:12:48;;;;;;;91.30;42.90;;;;;;;8.16;89.27;97802.13;222265;1299;22583;-74
2023/04/14 00:17:50;;;;;;;89.40;41.40;;;;;;;8.20;89.25;97802.29;222023;1302;22550;-75
2023/04/14 00:22:53;;;;;;;82.50;41.00;;;;;;;8.21;89.03;97801.13;222279;1298;23014;-75
2023/04/14 00:27:55;;;;;;;87.60;40.70;;;;;;;8.23;89.05;97800.52;221936;1302;22549;-74
2023/04/14 00:32:57;;;;;;;91.50;41.90;;;;;;;8.26;89.25;97795.23;222299;1300;22552;-75
2023/04/14 00:38:00;;;;;;;99.60;45.30;;;;;;;8.29;88.67;97791.56;222092;1301;23017;-75
2023/04/14 00:43:03;;;;;;;99.00;44.70;;;;;;;8.28;89.05;97781.12;222030;1302;24306;-75
2023/04/14 00:48:06;;;;;;;92.90;43.50;;;;;;;8.25;88.85;97766.78;222069;1302;22574;-75
2023/04/14 00:53:11;;;;;;;88.20;38.40;;;;;;;8.22;88.74;97761.05;222088;1292;22566;-75
2023/04/14 00:58:15;;;;;;;82.10;39.40;;;;;;;8.16;88.58;97754.80;221970;1302;22570;-75
2023/04/14 01:03:17;;;;;;;91.20;41.20;;;;;;;8.10;88.68;97754.83;222328;1299;22700;-75
2023/04/14 01:08:20;;;;;;;101.20;41.40;;;;;;;8.10;88.71;97763.93;221913;1301;22615;-75
2023/04/14 01:13:32;;;;;;;103.00;42.20;;;;;;;8.07;88.70;97756.27;222295;1299;22596;-74
2023/04/14 01:18:57;;;;;;;107.90;44.50;;;;;;;8.05;88.78;97750.27;222332;1302;22562;-75
2023/04/14 01:24:25;;;;;;;112.80;45.20;;;;;;;8.06;89.23;97753.27;222409;1296;22547;-76
2023/04/14 01:29:47;;;;;;;111.10;43.80;;;;;;;8.05;89.08;97761.89;222077;1300;22671;-76
2023/04/14 01:34:55;;;;;;;121.90;45.90;;;;;;;8.07;88.84;97764.13;222087;1289;22574;-76
2023/04/14 01:40:10;;;;;;;110.60;43.40;;;;;;;8.09;89.21;97757.77;222122;1302;23020;-75
2023/04/14 01:45:25;;;;;;;117.10;44.20;;;;;;;8.06;89.55;97762.10;221719;1298;24177;-75
2023/04/14 01:50:30;;;;;;;123.80;47.20;;;;;;;8.08;89.06;97758.58;221787;1299;22556;-74
2023/04/14 01:55:36;;;;;;;115.40;45.70;;;;;;;8.10;89.13;97751.06;222067;1302;22671;-74
2023/04/14 02:00:41;;;;;;;123.50;48.10;;;;;;;8.12;89.35;97746.83;222115;1299;22552;-75
2023/04/14 02:05:44;;;;;;;121.80;49.20;;;;;;;8.16;89.38;97749.29;222344;1302;22531;-75
2023/04/14 02:10:49;;;;;;;123.30;49.00;;;;;;;8.20;89.51;97742.34;222053;1302;22611;-75
2023/04/14 02:15:52;;;;;;;123.20;49.70;;;;;;;8.21;89.65;97740.01;222328;1299;22578;-75
2023/04/14 02:20:56;;;;;;;128.90;55.70;;;;;;;8.23;89.64;97731.27;222081;1302;22559;-75
2023/04/14 02:26:15;;;;;;;132.70;58.40;;;;;;;8.24;89.28;97728.44;222103;1296;22538;-75
2023/04/14 02:31:22;;;;;;;149.00;64.80;;;;;;;8.24;89.64;97719.73;222369;1299;22690;-75
2023/04/14 02:36:42;;;;;;;139.40;61.80;;;;;;;8.24;89.31;97715.64;222220;1293;22567;-75
2023/04/14 02:41:47;;;;;;;134.10;56.80;;;;;;;8.24;89.44;97713.41;222071;1302;22551;-75
2023/04/14 02:47:02;;;;;;;115.30;51.00;;;;;;;8.24;89.59;97708.40;222378;1302;25542;-75
2023/04/14 02:52:10;;;;;;;130.20;57.60;;;;;;;8.24;89.70;97704.23;222210;1302;22550;-75
2023/04/14 02:57:13;;;;;;;124.10;57.30;;;;;;;8.24;89.80;97704.39;222368;1299;22573;-74
2023/04/14 03:02:20;;;;;;;122.00;57.20;;;;;;;8.23;89.74;97696.66;222064;1302;22546;-76
2023/04/14 03:07:30;;;;;;;124.60;56.60;;;;;;;8.20;89.55;97697.77;221963;1302;26553;-75
2023/04/14 03:12:34;;;;;;;119.50;55.60;;;;;;;8.15;89.72;97698.55;222107;1302;22593;-75
2023/04/14 03:17:38;;;;;;;130.10;59.20;;;;;;;8.12;89.46;97698.22;222401;1299;22579;-79
2023/04/14 03:22:43;;;;;;;121.70;57.40;;;;;;;8.11;89.85;97699.95;222128;1302;22561;-73
2023/04/14 03:27:50;;;;;;;120.90;55.40;;;;;;;8.11;89.75;97699.98;222070;1302;25275;-75
2023/04/14 03:32:53;;;;;;;134.90;60.60;;;;;;;8.10;89.36;97701.13;222049;1298;22561;-75
2023/04/14 03:37:59;;;;;;;123.10;58.30;;;;;;;8.11;89.89;97705.21;222389;1299;22506;-75
2023/04/14 03:43:04;;;;;;;125.60;59.50;;;;;;;8.11;90.10;97692.27;222096;1302;22706;-75
2023/04/14 03:48:11;;;;;;;129.80;64.00;;;;;;;8.10;89.56;97685.02;222128;1302;22608;-75
2023/04/14 03:53:20;;;;;;;132.40;64.90;;;;;;;8.11;89.81;97685.75;222163;1302;22658;-74
2023/04/14 03:58:24;;;;;;;127.90;62.40;;;;;;;8.10;89.98;97679.15;222140;1302;22561;-75
2023/04/14 04:03:28;;;;;;;125.20;60.40;;;;;;;8.09;89.80;97680.23;222378;1299;22712;-74
2023/04/14 04:08:34;;;;;;;127.50;61.20;;;;;;;8.08;89.80;97682.05;222066;1302;22510;-74
2023/04/14 04:13:40;;;;;;;127.10;60.90;;;;;;;8.07;89.69;97678.89;222085;1302;22599;-75
2023/04/14 04:18:47;;;;;;;121.90;58.50;;;;;;;8.06;89.82;97675.98;222161;1296;22574;-75
2023/04/14 04:23:53;;;;;;;128.40;63.80;;;;;;;8.07;89.59;97675.21;222430;1299;22620;-74
2023/04/14 04:28:59;;;;;;;133.10;65.60;;;;;;;8.07;90.04;97669.42;221874;1302;22553;-74
2023/04/14 04:34:05;;;;;;;140.50;71.50;;;;;;;8.09;89.99;97668.05;222303;1293;22572;-74
2023/04/14 04:39:07;;;;;;;139.30;77.00;;;;;;;8.12;89.81;97659.32;222129;1298;22541;-75
2023/04/14 04:44:13;;;;;;;161.10;91.20;;;;;;;8.15;89.78;97657.39;222318;1299;22560;-77
2023/04/14 04:49:15;;;;;;;159.50;93.60;;;;;;;8.20;89.83;97661.71;222125;1302;22592;-75
2023/04/14 04:54:18;;;;;;;151.40;93.60;;;;;;;8.26;89.82;97658.73;222357;1299;22653;-76
2023/04/14 04:59:20;;;;;;;141.80;87.00;;;;;;;8.32;89.92;97665.61;222062;1302;22552;-76
2023/04/14 05:04:22;;;;;;;137.00;82.80;;;;;;;8.38;89.81;97666.75;222356;1300;22559;-76
2023/04/14 05:09:24;;;;;;;137.70;86.40;;;;;;;8.43;89.88;97664.58;222091;1296;22570;-76
2023/04/14 05:14:26;;;;;;;135.90;84.10;;;;;;;8.48;89.62;97661.52;221897;1302;24028;-76
2023/04/14 05:19:29;;;;;;;127.20;79.90;;;;;;;8.53;89.73;97660.27;222357;1299;22561;-76
2023/04/14 05:24:31;;;;;;;125.30;78.70;;;;;;;8.56;89.69;97650.52;222391;1299;22563;-75
2023/04/14 05:29:33;;;;;;;119.40;80.90;;;;;;;8.62;89.53;97642.05;222340;1297;24270;-75
2023/04/14 05:34:35;;;;;;;121.50;81.40;;;;;;;8.69;89.26;97638.52;222357;1297;22610;-75
2023/04/14 05:39:37;;;;;;;135.90;91.90;;;;;;;8.79;89.41;97622.70;222043;1302;24356;-75
2023/04/14 05:44:39;;;;;;;136.70;88.10;;;;;;;8.91;89.15;97617.38;221956;1299;26099;-76
2023/04/14 05:49:41;;;;;;;118.90;79.20;;;;;;;9.03;88.88;97608.67;221706;1301;22627;-76
2023/04/14 05:54:43;;;;;;;92.90;66.00;;;;;;;9.13;88.70;97590.13;222069;1289;22570;-78
2023/04/14 05:59:45;;;;;;;99.50;69.70;;;;;;;9.21;88.23;97590.34;221504;1289;22605;-76
2023/04/14 06:04:48;;;;;;;95.80;66.50;;;;;;;9.30;88.32;97599.31;221520;1283;22553;-77
2023/04/14 06:09:52;;;;;;;100.50;67.50;;;;;;;9.43;88.25;97593.66;220752;1287;138812;-77
2023/04/14 06:14:54;;;;;;;87.20;59.80;;;;;;;9.59;88.35;97597.98;221018;1283;139340;-75
2023/04/14 06:19:57;;;;;;;85.80;55.70;;;;;;;9.69;88.09;97591.78;221266;1283;140255;-77
2023/04/14 06:25:00;;;;;;;66.70;45.80;;;;;;;9.78;87.95;97583.34;221437;1280;24841;-77
2023/04/14 06:30:03;;;;;;;69.90;46.30;;;;;;;9.78;87.49;97579.13;221530;1283;139115;-76
2023/04/14 06:35:06;;;;;;;59.40;43.10;;;;;;;9.79;87.47;97573.83;221647;1277;139005;-76
2023/04/14 06:40:09;;;;;;;58.50;38.60;;;;;;;9.83;86.93;97577.37;221285;1286;139979;-76
2023/04/14 06:45:11;;;;;;;65.70;47.00;;;;;;;9.85;86.95;97579.71;221463;1295;139317;-77
2023/04/14 06:50:13;;;;;;;65.70;46.10;;;;;;;9.85;87.01;97576.91;221650;1282;139170;-76
2023/04/14 06:55:15;;;;;;;63.20;45.10;;;;;;;9.85;86.74;97575.45;221188;1280;22565;-76
2023/04/14 07:00:18;;;;;;;61.60;42.00;;;;;;;9.89;87.11;97568.66;221555;1286;139763;-76
2023/04/14 07:05:20;;;;;;;66.80;46.40;;;;;;;9.96;87.13;97567.51;221439;1289;139317;-78
2023/04/14 07:10:22;;;;;;;64.80;47.00;;;;;;;9.97;86.55;97553.82;221538;1296;139217;-77
2023/04/14 07:15:25;;;;;;;66.90;49.00;;;;;;;10.04;86.76;97541.51;221716;1282;139471;-76
2023/04/14 07:20:28;;;;;;;73.80;50.10;;;;;;;10.21;86.87;97534.36;221727;1296;139593;-76
2023/04/14 07:25:30;;;;;;;80.10;53.60;;;;;;;10.46;86.97;97531.36;221450;1301;26022;-77
2023/04/14 07:30:32;;;;;;;53.30;40.90;;;;;;;10.66;86.14;97534.33;221568;1300;138975;-76
2023/04/14 07:35:34;;;;;;;52.80;41.30;;;;;;;10.74;85.59;97535.78;221094;1296;139274;-76
2023/04/14 07:40:37;;;;;;;53.40;40.30;;;;;;;10.76;85.22;97547.84;221542;1302;139539;-76
2023/04/14 07:45:41;;;;;;;52.10;38.50;;;;;;;10.75;85.12;97556.74;221556;1292;139392;-76
2023/04/14 07:50:44;;;;;;;63.70;44.40;;;;;;;10.77;85.32;97561.73;221196;1293;139273;-77
2023/04/14 07:55:46;;;;;;;62.80;40.80;;;;;;;10.85;85.20;97565.91;221681;1284;139624;-77
2023/04/14 08:00:49;;;;;;;58.60;43.60;;;;;;;10.94;85.23;97562.52;221546;1299;22546;-76
2023/04/14 08:05:51;;;;;;;66.00;46.10;;;;;;;11.02;85.17;97564.02;221323;1301;139031;-76
2023/04/14 08:10:53;;;;;;;62.30;44.10;;;;;;;11.13;85.00;97560.68;221556;1298;140100;-76
2023/04/14 08:15:55;;;;;;;63.80;44.70;;;;;;;11.21;84.76;97558.27;221271;1296;139468;-76
2023/04/14 08:20:58;;;;;;;58.20;42.50;;;;;;;11.27;84.72;97550.99;221783;1299;140210;-76
2023/04/14 08:25:59;;;;;;;67.10;47.00;;;;;;;11.31;84.33;97544.75;221456;1283;139405;-77
2023/04/14 08:31:01;;;;;;;61.40;43.30;;;;;;;11.40;84.41;97548.39;221447;1299;22552;-78
2023/04/14 08:36:04;;;;;;;51.30;40.00;;;;;;;11.52;84.10;97541.09;221660;1292;139431;-77
2023/04/14 08:41:10;;;;;;;51.00;38.70;;;;;;;11.77;84.17;97541.59;221476;1302;139634;-75
2023/04/14 08:46:14;;;;;;;61.40;42.60;;;;;;;12.12;83.82;97541.58;221389;1291;139700;-76
2023/04/14 08:51:31;;;;;;;50.60;39.10;;;;;;;12.55;83.63;97539.56;221695;1298;139327;-77
2023/04/14 08:56:40;;;;;;;49.10;37.30;;;;;;;12.99;83.14;97540.62;221538;1302;139558;-77
2023/04/14 09:01:43;;;;;;;62.10;46.60;;;;;;;13.43;82.51;97536.17;221161;1287;139292;-77
2023/04/14 09:06:45;;;;;;;53.10;41.10;;;;;;;13.85;82.07;97535.29;221380;1285;22558;-79
2023/04/14 09:11:47;;;;;;;46.20;35.60;;;;;;;14.07;81.00;97540.49;221016;1301;138109;-78
2023/04/14 09:16:52;;;;;;;48.20;36.90;;;;;;;14.22;80.89;97540.20;221626;1297;139695;-78
2023/04/14 09:21:55;;;;;;;40.10;32.40;;;;;;;14.38;80.55;97536.63;221568;1300;139412;-79
2023/04/14 09:27:00;;;;;;;38.20;28.90;;;;;;;14.49;80.09;97531.48;221463;1301;139064;-79
2023/04/14 09:32:05;;;;;;;34.00;26.50;;;;;;;14.53;79.46;97516.17;221581;1290;140646;-79
2023/04/14 09:37:09;;;;;;;28.00;24.10;;;;;;;14.50;78.49;97510.43;221549;1299;22580;-78
2023/04/14 09:42:11;;;;;;;30.50;24.70;;;;;;;14.39;77.97;97502.22;221741;1280;139226;-79
2023/04/14 09:47:15;;;;;;;53.20;38.70;;;;;;;14.34;77.68;97501.45;221379;1290;139521;-79
2023/04/14 09:52:17;;;;;;;47.50;37.60;;;;;;;14.33;78.01;97491.70;221337;1283;139289;-80
2023/04/14 09:57:25;;;;;;;47.90;39.20;;;;;;;14.23;77.58;97478.70;221517;1289;139269;-79
2023/04/14 10:02:27;;;;;;;48.70;38.80;;;;;;;14.16;77.97;97472.85;221384;1297;139566;-78
2023/04/14 10:07:30;;;;;;;46.30;36.60;;;;;;;13.97;77.90;97462.41;221529;1302;22567;-78
2023/04/14 10:12:59;;;;;;;45.30;36.50;;;;;;;13.86;78.48;97453.15;218572;1316;569555;-80
2023/04/14 10:18:01;;;;;;;46.50;36.50;;;;;;;13.81;78.59;97452.91;223673;1275;138211;-78
2023/04/14 10:23:04;;;;;;;46.80;35.80;;;;;;;13.77;78.84;97446.97;223691;1287;137945;-82
2023/04/14 10:28:07;;;;;;;40.70;33.60;;;;;;;13.73;78.99;97447.10;223985;1289;138241;-81
2023/04/14 10:33:10;;;;;;;46.00;33.70;;;;;;;13.72;79.15;97441.15;224053;1287;138246;-82
2023/04/14 10:38:12;;;;;;;51.30;35.00;;;;;;;13.85;79.11;97433.95;224031;1288;138285;-79
2023/04/14 10:43:14;;;;;;;41.00;32.50;;;;;;;14.05;78.94;97427.84;223973;1273;24288;-78
2023/04/14 10:48:16;;;;;;;29.90;24.40;;;;;;;14.32;78.61;97417.30;223833;1290;138380;-76
2023/04/14 10:53:19;;;;;;;26.90;21.60;;;;;;;14.53;77.76;97406.74;223835;1282;138401;-77
2023/04/14 10:58:28;;;;;;;26.30;21.60;;;;;;;14.68;77.77;97405.13;223907;1282;138613;-76
2023/04/14 11:03:31;;;;;;;19.00;17.00;;;;;;;14.86;77.35;97407.52;223893;1276;138470;-75
2023/04/14 11:08:35;;;;;;;18.50;16.00;;;;;;;15.10;76.91;97402.35;223886;1285;138330;-75
2023/04/14 11:13:37;;;;;;;13.50;11.80;;;;;;;15.49;77.03;97398.63;224936;1272;22559;-75
2023/04/14 11:18:41;;;;;;;12.00;10.50;;;;;;;15.88;75.97;97391.13;224771;1280;138029;-75
2023/04/14 11:23:47;;;;;;;9.30;7.20;;;;;;;16.17;74.48;97387.70;224597;1280;138390;-75
2023/04/14 11:28:52;;;;;;;6.30;5.70;;;;;;;16.29;72.75;97383.56;224678;1282;137928;-74
2023/04/14 11:33:55;;;;;;;8.50;6.70;;;;;;;16.32;71.63;97377.17;224537;1283;138392;-74
2023/04/14 11:39:01;;;;;;;9.30;7.90;;;;;;;16.50;71.68;97374.75;224498;1272;138112;-74
2023/04/14 11:44:03;;;;;;;6.80;6.10;;;;;;;16.82;71.32;97371.37;224568;1281;137944;-77
2023/04/14 11:49:06;;;;;;;7.70;6.00;;;;;;;17.12;70.42;97364.08;224793;1279;22573;-76
2023/04/14 11:54:11;;;;;;;5.20;4.70;;;;;;;17.33;69.23;97366.73;224586;1280;138581;-75
2023/04/14 11:59:13;;;;;;;4.60;4.20;;;;;;;17.44;67.85;97366.30;224654;1282;137922;-77
2023/04/14 12:04:16;;;;;;;5.60;4.10;;;;;;;17.46;67.14;97359.85;224537;1275;138498;-76
2023/04/14 12:09:18;;;;;;;4.00;3.40;;;;;;;17.46;66.44;97355.37;224571;1278;139478;-76
2023/04/14 12:14:20;;;;;;;4.30;3.60;;;;;;;17.49;65.60;97350.23;224521;1280;138241;-76
2023/04/14 12:19:22;;;;;;;3.80;3.30;;;;;;;17.61;65.84;97339.70;224724;1276;22557;-76
2023/04/14 12:24:35;;;;;;;3.80;3.30;;;;;;;17.69;64.45;97328.39;224573;1279;137737;-76
2023/04/14 12:29:38;;;;;;;5.00;3.20;;;;;;;17.63;63.22;97323.95;224551;1276;137584;-75
2023/04/14 12:34:57;;;;;;;4.30;3.50;;;;;;;17.55;63.61;97314.75;224637;1272;137818;-76
2023/04/14 12:40:02;;;;;;;4.00;3.50;;;;;;;17.58;63.10;97302.47;224590;1272;138145;-75
2023/04/14 12:45:05;;;;;;;3.30;3.00;;;;;;;17.61;62.57;97290.83;224656;1275;138373;-75
2023/04/14 12:50:28;;;;;;;3.30;3.00;;;;;;;17.63;61.84;97280.44;224555;1269;137833;-76
2023/04/14 12:55:30;;;;;;;4.40;2.90;;;;;;;17.62;61.23;97273.89;224846;1267;22535;-75
2023/04/14 13:00:32;;;;;;;2.70;2.50;;;;;;;17.54;60.71;97267.97;224716;1272;137586;-77
2023/04/14 13:05:34;;;;;;;7.20;6.50;;;;;;;17.39;59.71;97257.36;224701;1280;137658;-77
2023/04/14 13:10:36;;;;;;;2.90;2.70;;;;;;;17.24;60.16;97252.13;224576;1275;137634;-77
2023/04/14 13:15:39;;;;;;;3.20;2.90;;;;;;;17.19;60.33;97249.80;224490;1272;138050;-77
2023/04/14 13:21:02;;;;;;;3.20;2.90;;;;;;;17.13;59.38;97249.58;224670;1269;137745;-77
2023/04/14 13:26:05;;;;;;;4.80;3.10;;;;;;;17.13;59.97;97252.52;224610;1282;137901;-77
2023/04/14 13:31:10;;;;;;;3.40;3.10;;;;;;;17.18;59.81;97257.48;224561;1267;23372;-79
2023/04/14 13:36:12;;;;;;;4.70;3.80;;;;;;;17.17;59.81;97258.83;224471;1259;137617;-79
2023/04/14 13:41:17;;;;;;;5.20;3.80;;;;;;;17.18;60.84;97258.13;224394;1281;140994;-77
2023/04/14 13:46:20;;;;;;;4.60;4.20;;;;;;;17.18;61.30;97250.50;224523;1272;138413;-78
2023/04/14 13:51:22;;;;;;;6.80;4.10;;;;;;;17.16;61.09;97248.25;224632;1280;137880;-76
2023/04/14 13:56:26;;;;;;;7.20;4.40;;;;;;;17.13;60.74;97249.74;224657;1275;137844;-75
2023/04/14 14:01:27;;;;;;;4.80;3.70;;;;;;;17.10;60.57;97246.27;224686;1272;22540;-74
2023/04/14 14:06:30;;;;;;;4.20;3.70;;;;;;;17.07;59.60;97241.79;224954;1276;22527;-74
2023/04/14 14:11:34;;;;;;;6.40;3.70;;;;;;;17.02;59.45;97242.70;225028;1283;22529;-75
2023/04/14 14:16:36;;;;;;;4.90;3.90;;;;;;;16.91;59.36;97238.21;225011;1281;22645;-76
2023/04/14 14:21:40;;;;;;;5.40;4.20;;;;;;;16.75;59.08;97239.32;225055;1280;22530;-75
2023/04/14 14:26:43;;;;;;;5.00;4.50;;;;;;;16.62;58.91;97251.65;225032;1281;22533;-75
2023/04/14 14:31:45;;;;;;;4.70;3.90;;;;;;;16.59;59.14;97249.36;225108;1275;22618;-76
2023/04/14 14:36:48;;;;;;;4.60;3.80;;;;;;;16.62;59.40;97251.21;224989;1283;22530;-75
2023/04/14 14:41:50;;;;;;;5.50;4.90;;;;;;;16.61;59.67;97251.77;225910;1278;22535;-76
2023/04/14 14:46:52;;;;;;;5.70;4.70;;;;;;;16.54;59.84;97252.38;225943;1276;22523;-75
2023/04/14 14:51:55;;;;;;;5.70;4.10;;;;;;;16.48;59.88;97251.45;225919;1276;22591;-75
2023/04/14 14:56:57;;;;;;;5.30;4.50;;;;;;;16.41;59.24;97256.35;225988;1278;22537;-74
2023/04/14 15:01:59;;;;;;;5.30;4.80;;;;;;;16.31;60.01;97257.33;226031;1278;22706;-75
2023/04/14 15:07:01;;;;;;;6.10;5.00;;;;;;;16.20;60.30;97258.67;225940;1277;22507;-75
2023/04/14 15:12:03;;;;;;;5.90;4.60;;;;;;;16.08;61.04;97257.19;225806;1278;22549;-75
2023/04/14 15:17:05;;;;;;;5.30;4.80;;;;;;;15.97;60.97;97263.75;225812;1277;22544;-77
2023/04/14 15:22:08;;;;;;;6.80;5.60;;;;;;;15.85;60.85;97258.80;225910;1274;24406;-76
2023/04/14 15:27:10;;;;;;;7.50;4.90;;;;;;;15.77;61.24;97265.88;226012;1278;22543;-75
2023/04/14 15:32:13;;;;;;;5.60;5.10;;;;;;;15.64;61.31;97267.20;225961;1278;22547;-75
2023/04/14 15:37:16;;;;;;;6.20;5.20;;;;;;;15.48;61.42;97272.87;225787;1278;22818;-75
2023/04/14 15:42:18;;;;;;;6.90;4.70;;;;;;;15.29;61.57;97274.74;225967;1278;22657;-75
2023/04/14 15:47:21;;;;;;;6.30;5.30;;;;;;;15.07;62.25;97282.45;225986;1278;22527;-75
2023/04/14 15:52:23;;;;;;;7.00;5.50;;;;;;;14.85;63.39;97287.42;225670;1278;23010;-75
2023/04/14 15:57:26;;;;;;;7.10;5.80;;;;;;;14.67;64.05;97293.09;225921;1275;25168;-75
2023/04/14 16:02:28;;;;;;;6.40;5.40;;;;;;;14.51;64.82;97293.14;225711;1277;22528;-74
2023/04/14 16:07:33;;;;;;;7.20;5.90;;;;;;;14.36;64.99;97294.60;225501;1278;23733;-76
2023/04/14 16:12:36;;;;;;;8.20;5.40;;;;;;;14.20;65.78;97298.86;225564;1278;22521;-75
2023/04/14 16:17:38;;;;;;;6.60;6.00;;;;;;;14.04;66.19;97297.45;225706;1278;22535;-75
2023/04/14 16:22:40;;;;;;;8.40;6.80;;;;;;;13.93;66.66;97302.34;225872;1278;22537;-75
2023/04/14 16:27:43;;;;;;;10.70;6.70;;;;;;;13.83;67.06;97301.98;225700;1275;22633;-74
2023/04/14 16:32:45;;;;;;;9.50;7.50;;;;;;;13.71;67.41;97294.09;225603;1278;22531;-74
2023/04/14 16:37:48;;;;;;;10.70;7.30;;;;;;;13.62;68.04;97300.75;225948;1276;22536;-74
2023/04/14 16:42:50;;;;;;;8.90;7.30;;;;;;;13.54;68.51;97307.30;225750;1275;22996;-74
2023/04/14 16:47:52;;;;;;;8.30;7.40;;;;;;;13.46;68.81;97311.13;225840;1277;22578;-76
2023/04/14 16:52:55;;;;;;;10.00;7.80;;;;;;;13.37;69.44;97318.95;225795;1278;22523;-75
2023/04/14 16:57:57;;;;;;;10.60;7.80;;;;;;;13.28;69.75;97327.35;225715;1256;22623;-75
2023/04/14 17:03:00;;;;;;;12.60;8.00;;;;;;;13.14;70.24;97332.92;225867;1278;22537;-75
2023/04/14 17:08:04;;;;;;;8.30;7.40;;;;;;;12.98;70.59;97327.98;225860;1277;22542;-75
2023/04/14 17:13:07;;;;;;;8.70;7.80;;;;;;;12.77;71.01;97325.42;225876;1278;22528;-76
2023/04/14 17:18:10;;;;;;;8.30;7.20;;;;;;;12.56;71.57;97318.95;225914;1278;22544;-76
2023/04/14 17:23:13;;;;;;;9.60;8.60;;;;;;;12.36;72.05;97317.65;225983;1276;22571;-75
2023/04/14 17:28:16;;;;;;;9.60;7.80;;;;;;;12.19;72.67;97316.41;225830;1278;22531;-76
2023/04/14 17:33:19;;;;;;;14.50;11.50;;;;;;;12.03;73.11;97319.63;225892;1278;22528;-75
2023/04/14 17:38:22;;;;;;;16.60;13.40;;;;;;;11.88;73.68;97321.16;225852;1278;22541;-75
2023/04/14 17:43:24;;;;;;;15.80;11.40;;;;;;;11.76;74.09;97317.34;225883;1278;25325;-75
2023/04/14 17:48:27;;;;;;;12.40;9.60;;;;;;;11.65;74.58;97310.48;225847;1278;22538;-75
2023/04/14 17:53:30;;;;;;;12.50;10.40;;;;;;;11.59;74.75;97308.21;225830;1277;22556;-75
2023/04/14 17:58:33;;;;;;;14.10;10.30;;;;;;;11.53;75.12;97310.52;225711;1278;22541;-75
2023/04/14 18:03:35;;;;;;;13.00;11.60;;;;;;;11.45;75.45;97309.52;225805;1278;22544;-75
2023/04/14 18:08:38;;;;;;;12.70;10.40;;;;;;;11.37;75.90;97308.08;225693;1278;22523;-74
2023/04/14 18:13:40;;;;;;;12.40;9.70;;;;;;;11.29;76.29;97305.13;226102;1275;22522;-75
2023/04/14 18:18:47;;;;;;;14.50;11.80;;;;;;;11.23;76.68;97308.83;225727;1275;22519;-76
2023/04/14 18:23:49;;;;;;;15.40;11.90;;;;;;;11.17;77.03;97306.02;225855;1278;22712;-75
2023/04/14 18:28:55;;;;;;;13.00;11.50;;;;;;;11.14;77.38;97313.23;225683;1278;22524;-75
2023/04/14 18:34:03;;;;;;;14.40;12.40;;;;;;;11.13;77.72;97301.21;225960;1275;22732;-75
2023/04/14 18:39:06;;;;;;;13.80;11.90;;;;;;;11.09;77.84;97298.08;225765;1278;22548;-76
2023/04/14 18:44:09;;;;;;;14.20;12.00;;;;;;;11.04;78.07;97297.66;225936;1277;22520;-75
2023/04/14 18:49:12;;;;;;;22.30;15.10;;;;;;;11.00;78.31;97292.86;225708;1278;22527;-75
2023/04/14 18:54:15;;;;;;;15.50;12.20;;;;;;;10.95;78.70;97294.36;225807;1277;22526;-75
2023/04/14 18:59:18;;;;;;;17.80;14.10;;;;;;;10.97;78.79;97289.99;225744;1278;22532;-77
2023/04/14 19:04:23;;;;;;;17.10;14.30;;;;;;;10.98;78.79;97280.30;225935;1277;22564;-75
2023/04/14 19:09:40;;;;;;;18.50;15.20;;;;;;;11.00;78.90;97275.73;225908;1278;24356;-75
2023/04/14 19:14:43;;;;;;;15.50;13.30;;;;;;;11.02;78.88;97275.00;225872;1277;22833;-75
2023/04/14 19:19:46;;;;;;;15.60;12.30;;;;;;;11.08;78.67;97275.67;225955;1276;23678;-74
2023/04/14 19:24:52;;;;;;;14.50;12.80;;;;;;;11.15;78.83;97273.36;225866;1277;22530;-73
2023/04/14 19:29:56;;;;;;;16.40;12.90;;;;;;;11.22;78.84;97269.89;225934;1275;22532;-75
2023/04/14 19:34:58;;;;;;;15.10;12.50;;;;;;;11.29;78.47;97276.59;225962;1278;22632;-76
2023/04/14 19:40:02;;;;;;;15.10;13.50;;;;;;;11.35;78.41;97275.03;225660;1278;22533;-75
2023/04/14 19:45:06;;;;;;;17.00;12.80;;;;;;;11.40;78.20;97273.94;225757;1278;22532;-76
2023/04/14 19:50:09;;;;;;;20.70;17.80;;;;;;;11.44;78.12;97271.77;225635;1278;22517;-75
2023/04/14 19:55:12;;;;;;;14.80;13.20;;;;;;;11.48;78.27;97268.29;225686;1278;22528;-75
2023/04/14 20:00:15;;;;;;;14.30;11.30;;;;;;;11.52;78.14;97255.16;225927;1278;22580;-74
2023/04/14 20:05:17;;;;;;;13.30;11.40;;;;;;;11.57;78.22;97253.48;225726;1278;22633;-75
2023/04/14 20:10:20;;;;;;;13.90;11.90;;;;;;;11.60;77.83;97251.30;225752;1278;22532;-75
2023/04/14 20:15:24;;;;;;;14.40;11.60;;;;;;;11.62;77.78;97248.38;225676;1277;22548;-74
2023/04/14 20:20:27;;;;;;;12.60;10.70;;;;;;;11.65;77.93;97247.35;225951;1276;24260;-74
2023/04/14 20:25:29;;;;;;;14.20;11.70;;;;;;;11.69;77.90;97250.92;225927;1278;22536;-74
2023/04/14 20:30:32;;;;;;;13.90;12.50;;;;;;;11.67;77.95;97267.63;225725;1278;25533;-74
2023/04/14 20:35:37;;;;;;;13.80;12.30;;;;;;;11.62;78.00;97272.67;225722;1278;22541;-74
2023/04/14 20:40:39;;;;;;;13.70;11.30;;;;;;;11.59;77.90;97267.11;225723;1278;22534;-74
2023/04/14 20:45:41;;;;;;;14.00;11.80;;;;;;;11.55;77.96;97261.59;225858;1278;24162;-74
2023/04/14 20:50:48;;;;;;;17.00;14.40;;;;;;;11.49;77.98;97253.46;225747;1278;22609;-74
2023/04/14 20:55:50;;;;;;;17.80;13.90;;;;;;;11.43;78.11;97258.34;225825;1278;23822;-75
2023/04/14 21:00:53;;;;;;;15.30;13.70;;;;;;;11.37;78.16;97267.47;225827;1278;24247;-74
2023/04/14 21:05:55;;;;;;;13.70;11.90;;;;;;;11.32;78.32;97280.09;225738;1271;22568;-74
2023/04/14 21:10:58;;;;;;;14.00;11.10;;;;;;;11.28;78.42;97288.73;225832;1278;22554;-74
2023/04/14 21:16:31;;;;;;;15.30;11.20;;;;;;;11.27;78.59;97300.15;225785;1278;22649;-74
2023/04/14 21:21:33;;;;;;;14.60;10.70;;;;;;;11.23;78.60;97306.22;225857;1275;25245;-73
2023/04/14 21:26:35;;;;;;;14.90;11.50;;;;;;;11.20;78.69;97311.60;225868;1278;22525;-74
2023/04/14 21:31:38;;;;;;;13.90;10.90;;;;;;;11.19;78.82;97309.09;225896;1278;25281;-73
2023/04/14 21:36:40;;;;;;;13.10;10.70;;;;;;;11.18;78.83;97314.64;225980;1273;25353;-74
2023/04/14 21:41:43;;;;;;;11.20;9.60;;;;;;;11.18;78.81;97315.45;225838;1276;22551;-73
2023/04/14 21:47:06;;;;;;;10.30;9.20;;;;;;;11.19;78.71;97313.94;225828;1278;22523;-74
2023/04/14 21:52:10;;;;;;;12.10;8.90;;;;;;;11.20;78.70;97329.67;225753;1277;22513;-73
2023/04/14 21:57:13;;;;;;;11.50;9.20;;;;;;;11.21;78.94;97337.46;225806;1278;22548;-74
2023/04/14 22:02:15;;;;;;;11.40;8.90;;;;;;;11.20;78.78;97340.35;225924;1278;22661;-74
2023/04/14 22:07:17;;;;;;;10.90;8.40;;;;;;;11.19;78.65;97337.64;225906;1278;22524;-74
2023/04/14 22:12:19;;;;;;;10.30;8.10;;;;;;;11.18;78.47;97347.75;225894;1278;22539;-75
2023/04/14 22:17:22;;;;;;;10.20;7.20;;;;;;;11.14;78.51;97354.52;225713;1278;22523;-75
2023/04/14 22:22:24;;;;;;;8.70;6.90;;;;;;;11.10;78.43;97366.50;226098;1273;22561;-74
2023/04/14 22:27:26;;;;;;;8.00;6.60;;;;;;;11.06;78.52;97370.83;225902;1275;249799;-75
2023/04/14 22:32:29;;;;;;;8.70;6.90;;;;;;;11.04;78.79;97365.69;225895;1278;22529;-76
2023/04/14 22:37:32;;;;;;;9.20;6.30;;;;;;;11.03;78.82;97366.67;225670;1278;22537;-75
2023/04/14 22:42:34;;;;;;;9.50;6.80;;;;;;;11.03;78.74;97381.84;225668;1278;22530;-74
2023/04/14 22:47:36;;;;;;;7.80;6.00;;;;;;;11.03;78.96;97381.92;225813;1278;22531;-75
2023/04/14 22:52:38;;;;;;;7.90;6.10;;;;;;;11.01;78.62;97390.36;225901;1278;23213;-74
2023/04/14 22:57:40;;;;;;;8.10;6.40;;;;;;;10.98;78.80;97398.67;225736;1278;22622;-74
2023/04/14 23:02:44;;;;;;;8.00;7.00;;;;;;;10.91;78.60;97412.52;225922;1278;22520;-74
2023/04/14 23:07:47;;;;;;;9.70;7.80;;;;;;;10.82;79.07;97418.14;225656;1278;25150;-75